sensor_id;sensor_type;location;lat;lon;timestamp;P1;durP1;ratioP1;P2;durP2;ratioP2
7446;SDS011;3765;47.962;7.952;2023-11-21T00:01:35;30.73;;;20.93;;
7446;SDS011;3765;47.962;7.952;2023-11-21T00:04:05;30.50;;;19.83;;
7446;SDS011;3765;47.962;7.952;2023-11-21T00:06:34;27.17;;;20.63;;
7446;SDS011;3765;47.962;7.952;2023-11-21T00:09:02;25.70;;;17.67;;
7446;SDS011;3765;47.962;7.952;2023-11-21T00:11:31;39.77;;;27.70;;
7446;SDS011;3765;47.962;7.952;2023-11-21T00:14:00;30.27;;;22.73;;
7446;SDS011;3765;47.962;7.952;2023-11-21T00:16:29;32.83;;;24.07;;
7446;SDS011;3765;47.962;7.952;2023-11-21T00:18:57;37.07;;;24.60;;
7446;SDS011;3765;47.962;7.952;2023-11-21T00:21:27;31.33;;;23.50;;
7446;SDS011;3765;47.962;7.952;2023-11-21T00:23:55;32.20;;;24.23;;
7446;SDS011;3765;47.962;7.952;2023-11-21T00:26:23;27.17;;;20.43;;
7446;SDS011;3765;47.962;7.952;2023-11-21T00:28:51;26.47;;;19.57;;
7446;SDS011;3765;47.962;7.952;2023-11-21T00:31:20;21.97;;;18.33;;
7446;SDS011;3765;47.962;7.952;2023-11-21T00:33:48;23.13;;;18.90;;
7446;SDS011;3765;47.962;7.952;2023-11-21T00:36:16;25.40;;;17.27;;
7446;SDS011;3765;47.962;7.952;2023-11-21T00:38:46;20.73;;;16.80;;
7446;SDS011;3765;47.962;7.952;2023-11-21T00:41:14;22.40;;;18.53;;
7446;SDS011;3765;47.962;7.952;2023-11-21T00:43:43;25.67;;;19.57;;
7446;SDS011;3765;47.962;7.952;2023-11-21T00:46:11;19.23;;;17.23;;
7446;SDS011;3765;47.962;7.952;2023-11-21T00:48:40;25.13;;;19.13;;
7446;SDS011;3765;47.962;7.952;2023-11-21T00:51:08;46.37;;;34.03;;
7446;SDS011;3765;47.962;7.952;2023-11-21T00:53:36;45.40;;;29.83;;
7446;SDS011;3765;47.962;7.952;2023-11-21T00:56:07;23.60;;;16.50;;
7446;SDS011;3765;47.962;7.952;2023-11-21T00:58:35;58.63;;;40.33;;
7446;SDS011;3765;47.962;7.952;2023-11-21T01:01:04;49.87;;;35.63;;
7446;SDS011;3765;47.962;7.952;2023-11-21T01:03:32;25.23;;;19.90;;
7446;SDS011;3765;47.962;7.952;2023-11-21T01:06:01;34.70;;;25.73;;
7446;SDS011;3765;47.962;7.952;2023-11-21T01:08:29;30.27;;;21.33;;
7446;SDS011;3765;47.962;7.952;2023-11-21T01:10:57;25.30;;;19.80;;
7446;SDS011;3765;47.962;7.952;2023-11-21T01:13:27;18.67;;;14.67;;
7446;SDS011;3765;47.962;7.952;2023-11-21T01:15:56;51.90;;;37.23;;
7446;SDS011;3765;47.962;7.952;2023-11-21T01:18:24;27.07;;;19.67;;
7446;SDS011;3765;47.962;7.952;2023-11-21T01:20:52;20.03;;;15.23;;
7446;SDS011;3765;47.962;7.952;2023-11-21T01:23:21;21.70;;;16.07;;
7446;SDS011;3765;47.962;7.952;2023-11-21T01:25:49;19.70;;;14.30;;
7446;SDS011;3765;47.962;7.952;2023-11-21T01:28:18;25.90;;;19.40;;
7446;SDS011;3765;47.962;7.952;2023-11-21T01:30:48;32.77;;;23.00;;
7446;SDS011;3765;47.962;7.952;2023-11-21T01:33:17;25.77;;;18.63;;
7446;SDS011;3765;47.962;7.952;2023-11-21T01:35:45;24.20;;;18.13;;
7446;SDS011;3765;47.962;7.952;2023-11-21T01:38:13;15.53;;;12.10;;
7446;SDS011;3765;47.962;7.952;2023-11-21T01:40:44;38.30;;;28.60;;
7446;SDS011;3765;47.962;7.952;2023-11-21T01:43:13;27.30;;;19.93;;
7446;SDS011;3765;47.962;7.952;2023-11-21T01:45:41;19.90;;;14.97;;
7446;SDS011;3765;47.962;7.952;2023-11-21T01:48:10;20.60;;;14.00;;
7446;SDS011;3765;47.962;7.952;2023-11-21T01:50:40;32.87;;;18.27;;
7446;SDS011;3765;47.962;7.952;2023-11-21T01:53:10;24.10;;;17.50;;
7446;SDS011;3765;47.962;7.952;2023-11-21T01:55:40;49.30;;;32.97;;
7446;SDS011;3765;47.962;7.952;2023-11-21T01:58:10;28.73;;;19.43;;
7446;SDS011;3765;47.962;7.952;2023-11-21T02:00:40;19.13;;;12.60;;
7446;SDS011;3765;47.962;7.952;2023-11-21T02:03:08;23.10;;;14.40;;
7446;SDS011;3765;47.962;7.952;2023-11-21T02:05:38;26.27;;;17.90;;
7446;SDS011;3765;47.962;7.952;2023-11-21T02:08:07;57.00;;;36.67;;
7446;SDS011;3765;47.962;7.952;2023-11-21T02:10:35;36.20;;;22.83;;
7446;SDS011;3765;47.962;7.952;2023-11-21T02:13:04;61.40;;;41.17;;
7446;SDS011;3765;47.962;7.952;2023-11-21T02:15:32;75.97;;;51.37;;
7446;SDS011;3765;47.962;7.952;2023-11-21T02:18:00;76.20;;;48.57;;
7446;SDS011;3765;47.962;7.952;2023-11-21T02:20:30;221.43;;;137.77;;
7446;SDS011;3765;47.962;7.952;2023-11-21T02:23:02;50.17;;;32.10;;
7446;SDS011;3765;47.962;7.952;2023-11-21T02:25:31;97.30;;;64.50;;
7446;SDS011;3765;47.962;7.952;2023-11-21T02:28:02;226.37;;;149.47;;
7446;SDS011;3765;47.962;7.952;2023-11-21T02:30:33;192.33;;;127.93;;
7446;SDS011;3765;47.962;7.952;2023-11-21T02:33:02;28.40;;;20.10;;
7446;SDS011;3765;47.962;7.952;2023-11-21T02:35:31;159.37;;;108.97;;
7446;SDS011;3765;47.962;7.952;2023-11-21T02:38:02;129.83;;;85.83;;
7446;SDS011;3765;47.962;7.952;2023-11-21T02:40:32;43.73;;;29.37;;
7446;SDS011;3765;47.962;7.952;2023-11-21T02:43:00;128.47;;;80.33;;
7446;SDS011;3765;47.962;7.952;2023-11-21T02:45:29;87.57;;;56.47;;
7446;SDS011;3765;47.962;7.952;2023-11-21T02:47:58;64.97;;;44.50;;
7446;SDS011;3765;47.962;7.952;2023-11-21T02:50:26;23.30;;;13.77;;
7446;SDS011;3765;47.962;7.952;2023-11-21T02:52:54;89.97;;;53.70;;
7446;SDS011;3765;47.962;7.952;2023-11-21T02:55:26;19.80;;;12.90;;
7446;SDS011;3765;47.962;7.952;2023-11-21T02:57:54;59.33;;;38.23;;
7446;SDS011;3765;47.962;7.952;2023-11-21T03:00:23;15.80;;;7.93;;
7446;SDS011;3765;47.962;7.952;2023-11-21T03:02:54;15.77;;;12.57;;
7446;SDS011;3765;47.962;7.952;2023-11-21T03:05:23;18.73;;;11.63;;
7446;SDS011;3765;47.962;7.952;2023-11-21T03:07:51;16.13;;;11.20;;
7446;SDS011;3765;47.962;7.952;2023-11-21T03:10:20;17.63;;;13.93;;
7446;SDS011;3765;47.962;7.952;2023-11-21T03:12:50;26.93;;;20.73;;
7446;SDS011;3765;47.962;7.952;2023-11-21T03:15:19;41.23;;;27.63;;
7446;SDS011;3765;47.962;7.952;2023-11-21T03:17:47;16.10;;;13.70;;
7446;SDS011;3765;47.962;7.952;2023-11-21T03:20:16;16.87;;;13.50;;
7446;SDS011;3765;47.962;7.952;2023-11-21T03:22:45;19.13;;;14.93;;
7446;SDS011;3765;47.962;7.952;2023-11-21T03:25:13;21.13;;;12.40;;
7446;SDS011;3765;47.962;7.952;2023-11-21T03:27:43;15.33;;;9.57;;
7446;SDS011;3765;47.962;7.952;2023-11-21T03:30:13;12.63;;;7.80;;
7446;SDS011;3765;47.962;7.952;2023-11-21T03:32:41;53.40;;;36.53;;
7446;SDS011;3765;47.962;7.952;2023-11-21T03:35:09;15.30;;;12.90;;
7446;SDS011;3765;47.962;7.952;2023-11-21T03:37:38;17.17;;;12.17;;
7446;SDS011;3765;47.962;7.952;2023-11-21T03:40:08;16.27;;;13.10;;
7446;SDS011;3765;47.962;7.952;2023-11-21T03:42:39;11.00;;;6.73;;
7446;SDS011;3765;47.962;7.952;2023-11-21T03:45:07;12.37;;;7.57;;
7446;SDS011;3765;47.962;7.952;2023-11-21T03:47:37;18.03;;;12.53;;
7446;SDS011;3765;47.962;7.952;2023-11-21T03:50:07;16.47;;;13.30;;
7446;SDS011;3765;47.962;7.952;2023-11-21T03:52:37;17.60;;;13.77;;
7446;SDS011;3765;47.962;7.952;2023-11-21T03:55:05;19.83;;;14.20;;
7446;SDS011;3765;47.962;7.952;2023-11-21T03:57:34;17.30;;;12.43;;
7446;SDS011;3765;47.962;7.952;2023-11-21T04:00:02;22.90;;;13.77;;
7446;SDS011;3765;47.962;7.952;2023-11-21T04:02:35;15.33;;;12.50;;
7446;SDS011;3765;47.962;7.952;2023-11-21T04:05:04;15.70;;;12.50;;
7446;SDS011;3765;47.962;7.952;2023-11-21T04:07:33;18.93;;;13.20;;
7446;SDS011;3765;47.962;7.952;2023-11-21T04:10:01;21.20;;;13.23;;
7446;SDS011;3765;47.962;7.952;2023-11-21T04:12:30;17.10;;;11.53;;
7446;SDS011;3765;47.962;7.952;2023-11-21T04:14:58;14.87;;;12.03;;
7446;SDS011;3765;47.962;7.952;2023-11-21T04:17:26;15.43;;;12.13;;
7446;SDS011;3765;47.962;7.952;2023-11-21T04:19:55;15.60;;;11.93;;
7446;SDS011;3765;47.962;7.952;2023-11-21T04:22:24;18.53;;;14.20;;
7446;SDS011;3765;47.962;7.952;2023-11-21T04:24:52;15.70;;;11.60;;
7446;SDS011;3765;47.962;7.952;2023-11-21T04:27:22;15.53;;;10.57;;
7446;SDS011;3765;47.962;7.952;2023-11-21T04:29:50;14.90;;;12.50;;
7446;SDS011;3765;47.962;7.952;2023-11-21T04:32:21;16.13;;;12.90;;
7446;SDS011;3765;47.962;7.952;2023-11-21T04:34:49;18.33;;;13.53;;
7446;SDS011;3765;47.962;7.952;2023-11-21T04:37:17;14.90;;;12.53;;
7446;SDS011;3765;47.962;7.952;2023-11-21T04:39:47;16.33;;;12.67;;
7446;SDS011;3765;47.962;7.952;2023-11-21T04:42:15;14.07;;;11.20;;
7446;SDS011;3765;47.962;7.952;2023-11-21T04:44:43;15.40;;;11.30;;
7446;SDS011;3765;47.962;7.952;2023-11-21T04:47:12;13.60;;;9.70;;
7446;SDS011;3765;47.962;7.952;2023-11-21T04:49:41;12.93;;;10.40;;
7446;SDS011;3765;47.962;7.952;2023-11-21T04:52:10;13.67;;;10.93;;
7446;SDS011;3765;47.962;7.952;2023-11-21T04:54:38;18.23;;;13.77;;
7446;SDS011;3765;47.962;7.952;2023-11-21T04:57:08;21.83;;;13.13;;
7446;SDS011;3765;47.962;7.952;2023-11-21T04:59:36;15.10;;;12.13;;
7446;SDS011;3765;47.962;7.952;2023-11-21T05:02:06;14.57;;;12.13;;
7446;SDS011;3765;47.962;7.952;2023-11-21T05:04:45;13.07;;;10.90;;
7446;SDS011;3765;47.962;7.952;2023-11-21T05:07:14;15.77;;;12.40;;
7446;SDS011;3765;47.962;7.952;2023-11-21T05:09:42;20.83;;;11.50;;
7446;SDS011;3765;47.962;7.952;2023-11-21T05:12:13;15.73;;;12.70;;
7446;SDS011;3765;47.962;7.952;2023-11-21T05:14:41;15.40;;;11.57;;
7446;SDS011;3765;47.962;7.952;2023-11-21T05:17:10;14.23;;;11.37;;
7446;SDS011;3765;47.962;7.952;2023-11-21T05:19:38;16.13;;;12.17;;
7446;SDS011;3765;47.962;7.952;2023-11-21T05:22:06;16.30;;;11.33;;
7446;SDS011;3765;47.962;7.952;2023-11-21T05:24:35;18.53;;;11.57;;
7446;SDS011;3765;47.962;7.952;2023-11-21T05:27:05;15.20;;;11.73;;
7446;SDS011;3765;47.962;7.952;2023-11-21T05:29:35;16.47;;;12.00;;
7446;SDS011;3765;47.962;7.952;2023-11-21T05:32:04;14.50;;;12.00;;
7446;SDS011;3765;47.962;7.952;2023-11-21T05:34:32;17.10;;;12.63;;
7446;SDS011;3765;47.962;7.952;2023-11-21T05:37:01;14.40;;;11.90;;
7446;SDS011;3765;47.962;7.952;2023-11-21T05:39:29;15.73;;;12.93;;
7446;SDS011;3765;47.962;7.952;2023-11-21T05:41:58;17.30;;;12.10;;
7446;SDS011;3765;47.962;7.952;2023-11-21T05:44:26;22.43;;;13.43;;
7446;SDS011;3765;47.962;7.952;2023-11-21T05:46:56;19.37;;;13.53;;
7446;SDS011;3765;47.962;7.952;2023-11-21T05:49:25;18.73;;;14.23;;
7446;SDS011;3765;47.962;7.952;2023-11-21T05:51:53;22.63;;;17.13;;
7446;SDS011;3765;47.962;7.952;2023-11-21T05:54:22;22.17;;;17.60;;
7446;SDS011;3765;47.962;7.952;2023-11-21T05:56:50;15.10;;;13.23;;
7446;SDS011;3765;47.962;7.952;2023-11-21T05:59:18;15.10;;;12.90;;
7446;SDS011;3765;47.962;7.952;2023-11-21T06:01:49;24.17;;;19.10;;
7446;SDS011;3765;47.962;7.952;2023-11-21T06:04:18;20.60;;;16.80;;
7446;SDS011;3765;47.962;7.952;2023-11-21T06:06:51;20.00;;;15.13;;
7446;SDS011;3765;47.962;7.952;2023-11-21T06:09:20;23.97;;;18.63;;
7446;SDS011;3765;47.962;7.952;2023-11-21T06:11:49;16.00;;;13.77;;
7446;SDS011;3765;47.962;7.952;2023-11-21T06:14:17;15.37;;;13.13;;
7446;SDS011;3765;47.962;7.952;2023-11-21T06:16:45;21.80;;;17.43;;
7446;SDS011;3765;47.962;7.952;2023-11-21T06:19:13;16.73;;;13.90;;
7446;SDS011;3765;47.962;7.952;2023-11-21T06:21:46;21.50;;;16.30;;
7446;SDS011;3765;47.962;7.952;2023-11-21T06:24:14;40.10;;;26.40;;
7446;SDS011;3765;47.962;7.952;2023-11-21T06:26:43;28.67;;;23.07;;
7446;SDS011;3765;47.962;7.952;2023-11-21T06:29:11;18.30;;;15.90;;
7446;SDS011;3765;47.962;7.952;2023-11-21T06:31:39;20.37;;;18.17;;
7446;SDS011;3765;47.962;7.952;2023-11-21T06:34:08;18.60;;;15.90;;
7446;SDS011;3765;47.962;7.952;2023-11-21T06:36:36;21.13;;;17.60;;
7446;SDS011;3765;47.962;7.952;2023-11-21T06:39:06;27.30;;;22.20;;
7446;SDS011;3765;47.962;7.952;2023-11-21T06:41:35;41.50;;;34.03;;
7446;SDS011;3765;47.962;7.952;2023-11-21T06:44:05;26.00;;;22.90;;
7446;SDS011;3765;47.962;7.952;2023-11-21T06:46:37;25.87;;;20.83;;
7446;SDS011;3765;47.962;7.952;2023-11-21T06:49:08;25.73;;;19.63;;
7446;SDS011;3765;47.962;7.952;2023-11-21T06:51:37;26.13;;;21.10;;
7446;SDS011;3765;47.962;7.952;2023-11-21T06:54:07;23.63;;;19.03;;
7446;SDS011;3765;47.962;7.952;2023-11-21T06:56:35;26.53;;;20.33;;
7446;SDS011;3765;47.962;7.952;2023-11-21T06:59:05;38.53;;;27.87;;
7446;SDS011;3765;47.962;7.952;2023-11-21T07:01:33;18.63;;;15.53;;
7446;SDS011;3765;47.962;7.952;2023-11-21T07:04:05;18.23;;;14.87;;
7446;SDS011;3765;47.962;7.952;2023-11-21T07:06:33;17.70;;;14.73;;
7446;SDS011;3765;47.962;7.952;2023-11-21T07:09:02;16.50;;;14.53;;
7446;SDS011;3765;47.962;7.952;2023-11-21T07:11:32;17.07;;;14.47;;
7446;SDS011;3765;47.962;7.952;2023-11-21T07:14:00;16.53;;;14.70;;
7446;SDS011;3765;47.962;7.952;2023-11-21T07:16:33;17.53;;;14.33;;
7446;SDS011;3765;47.962;7.952;2023-11-21T07:19:03;15.80;;;14.10;;
7446;SDS011;3765;47.962;7.952;2023-11-21T07:21:32;17.50;;;14.47;;
7446;SDS011;3765;47.962;7.952;2023-11-21T07:24:01;16.03;;;14.33;;
7446;SDS011;3765;47.962;7.952;2023-11-21T07:26:30;16.80;;;15.00;;
7446;SDS011;3765;47.962;7.952;2023-11-21T07:28:59;25.93;;;15.90;;
7446;SDS011;3765;47.962;7.952;2023-11-21T07:31:28;21.30;;;17.13;;
7446;SDS011;3765;47.962;7.952;2023-11-21T07:34:00;21.43;;;17.10;;
7446;SDS011;3765;47.962;7.952;2023-11-21T07:36:29;21.23;;;15.60;;
7446;SDS011;3765;47.962;7.952;2023-11-21T07:38:57;19.13;;;16.17;;
7446;SDS011;3765;47.962;7.952;2023-11-21T07:41:25;21.90;;;15.70;;
7446;SDS011;3765;47.962;7.952;2023-11-21T07:43:57;22.30;;;15.20;;
7446;SDS011;3765;47.962;7.952;2023-11-21T07:46:27;21.97;;;15.40;;
7446;SDS011;3765;47.962;7.952;2023-11-21T07:48:55;19.23;;;15.10;;
7446;SDS011;3765;47.962;7.952;2023-11-21T07:51:23;20.13;;;14.67;;
7446;SDS011;3765;47.962;7.952;2023-11-21T07:53:51;23.73;;;15.50;;
7446;SDS011;3765;47.962;7.952;2023-11-21T07:56:20;21.47;;;17.40;;
7446;SDS011;3765;47.962;7.952;2023-11-21T07:58:48;18.73;;;15.20;;
7446;SDS011;3765;47.962;7.952;2023-11-21T08:01:21;19.10;;;16.07;;
7446;SDS011;3765;47.962;7.952;2023-11-21T08:03:49;20.43;;;14.83;;
7446;SDS011;3765;47.962;7.952;2023-11-21T08:06:18;15.70;;;13.93;;
7446;SDS011;3765;47.962;7.952;2023-11-21T08:08:47;18.03;;;14.50;;
7446;SDS011;3765;47.962;7.952;2023-11-21T08:11:15;16.67;;;14.83;;
7446;SDS011;3765;47.962;7.952;2023-11-21T08:13:45;16.90;;;14.57;;
7446;SDS011;3765;47.962;7.952;2023-11-21T08:16:14;18.83;;;15.40;;
7446;SDS011;3765;47.962;7.952;2023-11-21T08:18:44;19.30;;;16.60;;
7446;SDS011;3765;47.962;7.952;2023-11-21T08:21:12;23.57;;;16.70;;
7446;SDS011;3765;47.962;7.952;2023-11-21T08:23:41;17.97;;;15.80;;
7446;SDS011;3765;47.962;7.952;2023-11-21T08:26:09;19.50;;;15.10;;
7446;SDS011;3765;47.962;7.952;2023-11-21T08:28:37;17.07;;;14.80;;
7446;SDS011;3765;47.962;7.952;2023-11-21T08:31:05;17.37;;;15.50;;
7446;SDS011;3765;47.962;7.952;2023-11-21T08:33:33;16.87;;;15.03;;
7446;SDS011;3765;47.962;7.952;2023-11-21T08:36:07;19.47;;;15.23;;
7446;SDS011;3765;47.962;7.952;2023-11-21T08:38:36;20.83;;;16.50;;
7446;SDS011;3765;47.962;7.952;2023-11-21T08:41:05;17.00;;;15.13;;
7446;SDS011;3765;47.962;7.952;2023-11-21T08:43:35;19.57;;;15.50;;
7446;SDS011;3765;47.962;7.952;2023-11-21T08:46:06;20.47;;;16.20;;
7446;SDS011;3765;47.962;7.952;2023-11-21T08:48:35;20.10;;;16.57;;
7446;SDS011;3765;47.962;7.952;2023-11-21T08:51:04;18.87;;;16.00;;
7446;SDS011;3765;47.962;7.952;2023-11-21T08:53:34;19.30;;;16.40;;
7446;SDS011;3765;47.962;7.952;2023-11-21T08:56:02;26.53;;;19.53;;
7446;SDS011;3765;47.962;7.952;2023-11-21T08:58:31;16.87;;;14.70;;
7446;SDS011;3765;47.962;7.952;2023-11-21T09:00:59;24.40;;;16.13;;
7446;SDS011;3765;47.962;7.952;2023-11-21T09:03:27;18.50;;;14.90;;
7446;SDS011;3765;47.962;7.952;2023-11-21T09:05:56;18.03;;;14.83;;
7446;SDS011;3765;47.962;7.952;2023-11-21T09:08:25;20.80;;;16.40;;
7446;SDS011;3765;47.962;7.952;2023-11-21T09:10:56;22.27;;;15.57;;
7446;SDS011;3765;47.962;7.952;2023-11-21T09:13:24;19.73;;;16.27;;
7446;SDS011;3765;47.962;7.952;2023-11-21T09:15:52;20.23;;;15.70;;
7446;SDS011;3765;47.962;7.952;2023-11-21T09:18:21;20.20;;;16.13;;
7446;SDS011;3765;47.962;7.952;2023-11-21T09:20:49;18.80;;;15.93;;
7446;SDS011;3765;47.962;7.952;2023-11-21T09:23:18;22.20;;;19.80;;
7446;SDS011;3765;47.962;7.952;2023-11-21T09:25:46;21.60;;;18.27;;
7446;SDS011;3765;47.962;7.952;2023-11-21T09:28:17;19.13;;;15.87;;
7446;SDS011;3765;47.962;7.952;2023-11-21T09:30:45;20.10;;;15.27;;
7446;SDS011;3765;47.962;7.952;2023-11-21T09:33:15;20.10;;;16.43;;
7446;SDS011;3765;47.962;7.952;2023-11-21T09:35:43;19.53;;;15.00;;
7446;SDS011;3765;47.962;7.952;2023-11-21T09:38:11;20.90;;;14.50;;
7446;SDS011;3765;47.962;7.952;2023-11-21T09:40:40;17.20;;;15.10;;
7446;SDS011;3765;47.962;7.952;2023-11-21T09:43:11;17.87;;;15.97;;
7446;SDS011;3765;47.962;7.952;2023-11-21T09:45:46;19.80;;;15.53;;
7446;SDS011;3765;47.962;7.952;2023-11-21T09:48:16;21.40;;;16.80;;
7446;SDS011;3765;47.962;7.952;2023-11-21T09:50:47;22.70;;;19.33;;
7446;SDS011;3765;47.962;7.952;2023-11-21T09:53:19;18.40;;;15.93;;
7446;SDS011;3765;47.962;7.952;2023-11-21T09:55:49;17.10;;;15.10;;
7446;SDS011;3765;47.962;7.952;2023-11-21T09:58:19;18.13;;;16.23;;
7446;SDS011;3765;47.962;7.952;2023-11-21T10:00:53;17.03;;;15.23;;
7446;SDS011;3765;47.962;7.952;2023-11-21T10:03:23;18.40;;;15.57;;
7446;SDS011;3765;47.962;7.952;2023-11-21T10:05:51;17.77;;;15.70;;
7446;SDS011;3765;47.962;7.952;2023-11-21T10:08:25;17.20;;;15.27;;
7446;SDS011;3765;47.962;7.952;2023-11-21T10:11:12;18.07;;;15.10;;
7446;SDS011;3765;47.962;7.952;2023-11-21T10:13:42;17.17;;;15.23;;
7446;SDS011;3765;47.962;7.952;2023-11-21T10:16:15;19.67;;;17.07;;
7446;SDS011;3765;47.962;7.952;2023-11-21T10:18:48;16.90;;;15.10;;
7446;SDS011;3765;47.962;7.952;2023-11-21T10:21:28;16.57;;;14.40;;
7446;SDS011;3765;47.962;7.952;2023-11-21T10:23:57;18.73;;;15.50;;
7446;SDS011;3765;47.962;7.952;2023-11-21T10:26:25;17.87;;;14.90;;
7446;SDS011;3765;47.962;7.952;2023-11-21T10:28:57;26.43;;;19.27;;
7446;SDS011;3765;47.962;7.952;2023-11-21T10:31:27;21.67;;;15.40;;
7446;SDS011;3765;47.962;7.952;2023-11-21T10:33:57;18.20;;;15.90;;
7446;SDS011;3765;47.962;7.952;2023-11-21T10:36:41;19.00;;;15.53;;
7446;SDS011;3765;47.962;7.952;2023-11-21T10:39:13;19.90;;;15.07;;
7446;SDS011;3765;47.962;7.952;2023-11-21T10:41:45;19.60;;;16.13;;
7446;SDS011;3765;47.962;7.952;2023-11-21T10:44:14;17.80;;;15.90;;
7446;SDS011;3765;47.962;7.952;2023-11-21T10:46:50;22.50;;;16.90;;
7446;SDS011;3765;47.962;7.952;2023-11-21T10:49:22;18.87;;;16.87;;
7446;SDS011;3765;47.962;7.952;2023-11-21T10:51:52;19.83;;;17.27;;
7446;SDS011;3765;47.962;7.952;2023-11-21T10:54:22;22.27;;;18.50;;
7446;SDS011;3765;47.962;7.952;2023-11-21T10:56:53;18.00;;;15.93;;
7446;SDS011;3765;47.962;7.952;2023-11-21T10:59:25;21.00;;;18.20;;
7446;SDS011;3765;47.962;7.952;2023-11-21T11:01:59;24.40;;;16.20;;
7446;SDS011;3765;47.962;7.952;2023-11-21T11:04:33;28.17;;;23.10;;
7446;SDS011;3765;47.962;7.952;2023-11-21T11:07:05;19.00;;;16.47;;
7446;SDS011;3765;47.962;7.952;2023-11-21T11:09:38;18.97;;;17.03;;
7446;SDS011;3765;47.962;7.952;2023-11-21T11:12:07;18.30;;;16.20;;
7446;SDS011;3765;47.962;7.952;2023-11-21T11:14:36;21.17;;;17.20;;
7446;SDS011;3765;47.962;7.952;2023-11-21T11:17:11;18.80;;;16.60;;
7446;SDS011;3765;47.962;7.952;2023-11-21T11:19:41;18.87;;;16.20;;
7446;SDS011;3765;47.962;7.952;2023-11-21T11:22:14;17.60;;;15.47;;
7446;SDS011;3765;47.962;7.952;2023-11-21T11:24:57;17.67;;;15.80;;
7446;SDS011;3765;47.962;7.952;2023-11-21T11:27:42;17.03;;;15.23;;
7446;SDS011;3765;47.962;7.952;2023-11-21T11:30:20;17.80;;;15.50;;
7446;SDS011;3765;47.962;7.952;2023-11-21T11:32:58;16.57;;;14.87;;
7446;SDS011;3765;47.962;7.952;2023-11-21T11:35:41;18.93;;;15.53;;
7446;SDS011;3765;47.962;7.952;2023-11-21T11:38:21;17.67;;;15.67;;
7446;SDS011;3765;47.962;7.952;2023-11-21T11:40:52;18.03;;;15.87;;
7446;SDS011;3765;47.962;7.952;2023-11-21T11:43:27;19.00;;;15.40;;
7446;SDS011;3765;47.962;7.952;2023-11-21T11:45:55;19.37;;;17.33;;
7446;SDS011;3765;47.962;7.952;2023-11-21T11:48:27;18.43;;;15.77;;
7446;SDS011;3765;47.962;7.952;2023-11-21T11:51:01;20.07;;;17.97;;
7446;SDS011;3765;47.962;7.952;2023-11-21T11:53:37;18.20;;;16.30;;
7446;SDS011;3765;47.962;7.952;2023-11-21T11:56:21;16.80;;;15.00;;
7446;SDS011;3765;47.962;7.952;2023-11-21T11:58:58;20.00;;;17.57;;
7446;SDS011;3765;47.962;7.952;2023-11-21T12:01:29;17.23;;;15.37;;
7446;SDS011;3765;47.962;7.952;2023-11-21T12:07:01;17.30;;;15.47;;
7446;SDS011;3765;47.962;7.952;2023-11-21T12:09:31;18.10;;;16.13;;
7446;SDS011;3765;47.962;7.952;2023-11-21T12:11:59;22.57;;;19.93;;
7446;SDS011;3765;47.962;7.952;2023-11-21T12:14:30;19.10;;;17.10;;
7446;SDS011;3765;47.962;7.952;2023-11-21T12:16:58;18.13;;;16.23;;
7446;SDS011;3765;47.962;7.952;2023-11-21T12:19:30;18.67;;;16.67;;
7446;SDS011;3765;47.962;7.952;2023-11-21T12:21:59;18.43;;;16.50;;
7446;SDS011;3765;47.962;7.952;2023-11-21T12:24:27;18.00;;;16.10;;
7446;SDS011;3765;47.962;7.952;2023-11-21T12:26:55;18.77;;;16.77;;
7446;SDS011;3765;47.962;7.952;2023-11-21T12:29:24;18.80;;;16.80;;
7446;SDS011;3765;47.962;7.952;2023-11-21T12:31:52;34.83;;;31.03;;
7446;SDS011;3765;47.962;7.952;2023-11-21T12:34:20;24.47;;;21.87;;
7446;SDS011;3765;47.962;7.952;2023-11-21T12:36:51;19.67;;;17.60;;
7446;SDS011;3765;47.962;7.952;2023-11-21T12:39:22;19.43;;;17.33;;
7446;SDS011;3765;47.962;7.952;2023-11-21T12:41:50;19.23;;;17.23;;
7446;SDS011;3765;47.962;7.952;2023-11-21T12:44:18;21.97;;;19.30;;
7446;SDS011;3765;47.962;7.952;2023-11-21T12:46:49;20.30;;;17.80;;
7446;SDS011;3765;47.962;7.952;2023-11-21T12:49:19;19.57;;;17.57;;
7446;SDS011;3765;47.962;7.952;2023-11-21T12:51:48;23.73;;;21.13;;
7446;SDS011;3765;47.962;7.952;2023-11-21T12:54:18;23.80;;;21.30;;
7446;SDS011;3765;47.962;7.952;2023-11-21T12:56:46;20.20;;;17.93;;
7446;SDS011;3765;47.962;7.952;2023-11-21T12:59:15;20.33;;;18.13;;
7446;SDS011;3765;47.962;7.952;2023-11-21T13:01:44;20.97;;;18.77;;
7446;SDS011;3765;47.962;7.952;2023-11-21T13:04:15;22.07;;;18.50;;
7446;SDS011;3765;47.962;7.952;2023-11-21T13:06:45;20.73;;;18.53;;
7446;SDS011;3765;47.962;7.952;2023-11-21T13:09:13;23.40;;;20.90;;
7446;SDS011;3765;47.962;7.952;2023-11-21T13:11:50;23.73;;;20.80;;
7446;SDS011;3765;47.962;7.952;2023-11-21T13:14:29;21.50;;;18.57;;
7446;SDS011;3765;47.962;7.952;2023-11-21T13:16:58;21.53;;;19.23;;
7446;SDS011;3765;47.962;7.952;2023-11-21T13:19:27;21.43;;;19.10;;
7446;SDS011;3765;47.962;7.952;2023-11-21T13:21:55;20.17;;;18.10;;
7446;SDS011;3765;47.962;7.952;2023-11-21T13:24:25;20.37;;;18.27;;
7446;SDS011;3765;47.962;7.952;2023-11-21T13:26:54;19.73;;;17.53;;
7446;SDS011;3765;47.962;7.952;2023-11-21T13:29:24;21.97;;;19.67;;
7446;SDS011;3765;47.962;7.952;2023-11-21T13:31:53;20.17;;;18.10;;
7446;SDS011;3765;47.962;7.952;2023-11-21T13:34:21;21.00;;;18.80;;
7446;SDS011;3765;47.962;7.952;2023-11-21T13:36:54;23.43;;;18.80;;
7446;SDS011;3765;47.962;7.952;2023-11-21T13:39:27;27.00;;;23.97;;
7446;SDS011;3765;47.962;7.952;2023-11-21T13:41:56;21.70;;;19.40;;
7446;SDS011;3765;47.962;7.952;2023-11-21T13:44:25;23.10;;;20.70;;
7446;SDS011;3765;47.962;7.952;2023-11-21T13:47:00;31.97;;;28.53;;
7446;SDS011;3765;47.962;7.952;2023-11-21T13:49:29;32.13;;;28.70;;
7446;SDS011;3765;47.962;7.952;2023-11-21T13:52:01;32.80;;;29.00;;
7446;SDS011;3765;47.962;7.952;2023-11-21T13:54:30;20.17;;;18.07;;
7446;SDS011;3765;47.962;7.952;2023-11-21T13:57:00;22.87;;;20.07;;
7446;SDS011;3765;47.962;7.952;2023-11-21T13:59:29;21.90;;;18.57;;
7446;SDS011;3765;47.962;7.952;2023-11-21T14:01:58;27.87;;;21.73;;
7446;SDS011;3765;47.962;7.952;2023-11-21T14:04:39;23.90;;;18.40;;
7446;SDS011;3765;47.962;7.952;2023-11-21T14:07:21;74.83;;;40.47;;
7446;SDS011;3765;47.962;7.952;2023-11-21T14:09:59;21.07;;;18.33;;
7446;SDS011;3765;47.962;7.952;2023-11-21T14:12:29;20.37;;;18.27;;
7446;SDS011;3765;47.962;7.952;2023-11-21T14:15:04;37.43;;;25.33;;
7446;SDS011;3765;47.962;7.952;2023-11-21T14:17:36;48.90;;;29.80;;
7446;SDS011;3765;47.962;7.952;2023-11-21T14:20:08;40.73;;;26.10;;
7446;SDS011;3765;47.962;7.952;2023-11-21T14:22:43;45.40;;;27.50;;
7446;SDS011;3765;47.962;7.952;2023-11-21T14:25:12;72.20;;;39.07;;
7446;SDS011;3765;47.962;7.952;2023-11-21T14:27:42;27.20;;;21.40;;
7446;SDS011;3765;47.962;7.952;2023-11-21T14:30:10;49.10;;;29.00;;
7446;SDS011;3765;47.962;7.952;2023-11-21T14:32:40;90.03;;;42.03;;
7446;SDS011;3765;47.962;7.952;2023-11-21T14:35:08;62.23;;;32.13;;
7446;SDS011;3765;47.962;7.952;2023-11-21T14:37:37;69.40;;;34.10;;
7446;SDS011;3765;47.962;7.952;2023-11-21T14:40:06;133.23;;;53.17;;
7446;SDS011;3765;47.962;7.952;2023-11-21T14:42:35;117.87;;;46.13;;
7446;SDS011;3765;47.962;7.952;2023-11-21T14:45:08;141.57;;;53.90;;
7446;SDS011;3765;47.962;7.952;2023-11-21T14:47:39;64.73;;;33.00;;
7446;SDS011;3765;47.962;7.952;2023-11-21T14:50:13;61.90;;;33.67;;
7446;SDS011;3765;47.962;7.952;2023-11-21T14:52:59;24.13;;;19.63;;
7446;SDS011;3765;47.962;7.952;2023-11-21T14:55:32;26.47;;;21.10;;
7446;SDS011;3765;47.962;7.952;2023-11-21T14:58:07;90.33;;;38.10;;
7446;SDS011;3765;47.962;7.952;2023-11-21T15:00:40;94.97;;;41.27;;
7446;SDS011;3765;47.962;7.952;2023-11-21T15:03:11;61.40;;;32.40;;
7446;SDS011;3765;47.962;7.952;2023-11-21T15:06:01;57.67;;;32.57;;
7446;SDS011;3765;47.962;7.952;2023-11-21T15:08:48;28.27;;;22.13;;